9VYFD WSSL-WSSL

Flight info

Callsign 9VYFD
Flight time 0h 35m
Altitude 7000
Route LATA/CIRCUITS
Aircraft DA40/L-V/N

Departure

Time 2026-05-09 08:26
Airport Seletar Airport (WSSL)

Arrival

Time 2026-05-09 09:02
Airport Seletar Airport (WSSL)
Time Latitude Longitude Altitude Speed Heading
2026-05-09 08:07 1.41380 103.86326 49 ft 0 kts 97°
2026-05-09 08:20 1.41379 103.86334 76 ft 4 kts 95°
2026-05-09 08:20 1.41377 103.86374 49 ft 3 kts 59°
2026-05-09 08:20 1.41432 103.86412 49 ft 14 kts 35°
2026-05-09 08:21 1.41491 103.86462 49 ft 9 kts 34°
2026-05-09 08:21 1.41527 103.86482 49 ft 0 kts 345°
2026-05-09 08:23 1.41531 103.86483 49 ft 2 kts 30°
2026-05-09 08:23 1.41564 103.86525 49 ft 9 kts 115°
2026-05-09 08:23 1.41532 103.86573 49 ft 8 kts 124°
2026-05-09 08:24 1.41499 103.86618 50 ft 9 kts 154°
2026-05-09 08:24 1.41423 103.86588 49 ft 17 kts 213°
2026-05-09 08:24 1.41320 103.86504 49 ft 10 kts 217°
2026-05-09 08:24 1.41313 103.86516 49 ft 3 kts 30°
2026-05-09 08:25 1.41317 103.86518 49 ft 0 kts 32°
2026-05-09 08:25 1.41387 103.86564 49 ft 37 kts 32°
2026-05-09 08:25 1.41745 103.86796 58 ft 80 kts 34°
2026-05-09 08:26 1.42232 103.87108 262 ft 82 kts 34°
2026-05-09 08:26 1.42727 103.87439 584 ft 87 kts 37°
2026-05-09 08:26 1.43306 103.87553 1011 ft 88 kts 343°
2026-05-09 08:26 1.43745 103.87185 1515 ft 87 kts 291°
2026-05-09 08:27 1.43706 103.86635 1795 ft 88 kts 233°
2026-05-09 08:27 1.43252 103.86163 1799 ft 98 kts 242°
2026-05-09 08:27 1.42807 103.85699 1819 ft 94 kts 242°
2026-05-09 08:27 1.42269 103.85322 1846 ft 91 kts 225°
2026-05-09 08:28 1.41736 103.85030 1942 ft 80 kts 213°
2026-05-09 08:28 1.41278 103.84713 1882 ft 79 kts 218°
2026-05-09 08:28 1.40804 103.84393 1731 ft 82 kts 214°
2026-05-09 08:28 1.40361 103.84024 1506 ft 82 kts 223°
2026-05-09 08:29 1.39902 103.83657 1436 ft 87 kts 219°
2026-05-09 08:29 1.39447 103.83221 1482 ft 94 kts 249°
2026-05-09 08:29 1.39426 103.82564 1492 ft 96 kts 265°
2026-05-09 08:29 1.39347 103.81898 1499 ft 95 kts 259°
2026-05-09 08:30 1.39252 103.81244 1490 ft 98 kts 261°
2026-05-09 08:30 1.39184 103.80576 1509 ft 94 kts 264°
2026-05-09 08:30 1.39128 103.79923 1499 ft 97 kts 263°
2026-05-09 08:30 1.39065 103.79245 1610 ft 94 kts 262°
2026-05-09 08:31 1.39012 103.78613 1793 ft 94 kts 268°
2026-05-09 08:31 1.39261 103.78031 2008 ft 91 kts 310°
2026-05-09 08:31 1.39819 103.77707 2154 ft 95 kts 352°
2026-05-09 08:31 1.40317 103.78026 2267 ft 100 kts 87°
2026-05-09 08:32 1.40189 103.78657 2519 ft 88 kts 106°
2026-05-09 08:32 1.40026 103.79233 2732 ft 84 kts 106°
2026-05-09 08:32 1.39072 103.79741 3095 ft 82 kts 177°
2026-05-09 08:33 1.38809 103.79753 3151 ft 85 kts 176°
2026-05-09 08:33 1.38221 103.79796 3339 ft 82 kts 172°
2026-05-09 08:33 1.37878 103.79948 3446 ft 83 kts 138°
2026-05-09 08:33 1.37671 103.80478 3613 ft 84 kts 82°
2026-05-09 08:34 1.38000 103.80937 3741 ft 88 kts 22°
2026-05-09 08:34 1.38566 103.80877 3946 ft 81 kts 325°
2026-05-09 08:34 1.39020 103.80544 4087 ft 82 kts 318°
2026-05-09 08:34 1.39379 103.79864 4265 ft 87 kts 291°
2026-05-09 08:35 1.39531 103.79489 4388 ft 85 kts 292°
2026-05-09 08:35 1.39794 103.78966 4548 ft 84 kts 311°
2026-05-09 08:35 1.40328 103.78782 4664 ft 85 kts
2026-05-09 08:35 1.40913 103.78859 4805 ft 87 kts
2026-05-09 08:36 1.41526 103.78955 4973 ft 84 kts
2026-05-09 08:36 1.42102 103.79075 5096 ft 87 kts 10°
2026-05-09 08:36 1.42680 103.79209 5260 ft 87 kts 14°
2026-05-09 08:36 1.43250 103.79411 5412 ft 87 kts 22°
2026-05-09 08:37 1.43815 103.79674 5547 ft 89 kts 25°
2026-05-09 08:37 1.44360 103.79958 5699 ft 88 kts 27°
2026-05-09 08:37 1.44882 103.80266 5840 ft 86 kts 29°
2026-05-09 08:37 1.45334 103.80631 5959 ft 87 kts 56°
2026-05-09 08:38 1.45394 103.81221 6049 ft 89 kts 109°
2026-05-09 08:38 1.45160 103.81800 6102 ft 95 kts 115°
2026-05-09 08:38 1.44865 103.82348 6269 ft 87 kts 119°
2026-05-09 08:38 1.44524 103.82896 6349 ft 91 kts 123°
2026-05-09 08:39 1.44145 103.83404 6450 ft 94 kts 128°
2026-05-09 08:39 1.43697 103.83917 6552 ft 99 kts 132°
2026-05-09 08:39 1.43231 103.84401 6747 ft 95 kts 134°
2026-05-09 08:39 1.42737 103.84817 6752 ft 99 kts 144°
2026-05-09 08:40 1.42162 103.85198 6921 ft 95 kts 151°
2026-05-09 08:40 1.41563 103.85479 7028 ft 97 kts 155°
2026-05-09 08:40 1.40963 103.85742 7147 ft 93 kts 158°
2026-05-09 08:40 1.40342 103.85970 7184 ft 95 kts 162°
2026-05-09 08:41 1.39688 103.86038 7177 ft 97 kts 199°
2026-05-09 08:41 1.39171 103.85729 7138 ft 88 kts 219°
2026-05-09 08:41 1.38961 103.85187 6986 ft 86 kts 277°
2026-05-09 08:41 1.39212 103.84665 6835 ft 84 kts 331°
2026-05-09 08:42 1.39705 103.84909 6659 ft 90 kts 59°
2026-05-09 08:42 1.39974 103.85491 6481 ft 98 kts 70°
2026-05-09 08:42 1.40176 103.86088 6436 ft 91 kts 67°
2026-05-09 08:42 1.40501 103.86665 6330 ft 92 kts 48°
2026-05-09 08:43 1.41013 103.87039 6208 ft 94 kts 25°
2026-05-09 08:43 1.41641 103.87171 6128 ft 93 kts 356°
2026-05-09 08:43 1.42187 103.86920 6093 ft 90 kts 305°
2026-05-09 08:43 1.42216 103.86325 6088 ft 87 kts 244°
2026-05-09 08:44 1.41885 103.85803 5979 ft 94 kts 253°
2026-05-09 08:44 1.41495 103.85313 5918 ft 95 kts 222°
2026-05-09 08:44 1.40990 103.84893 5860 ft 91 kts 222°
2026-05-09 08:44 1.40409 103.84645 5741 ft 93 kts 182°
2026-05-09 08:45 1.39839 103.84893 5579 ft 96 kts 127°
2026-05-09 08:45 1.39813 103.85562 5441 ft 93 kts 66°
2026-05-09 08:45 1.40165 103.86098 5340 ft 93 kts 46°
2026-05-09 08:45 1.40661 103.86514 5250 ft 93 kts 31°
2026-05-09 08:46 1.41207 103.86866 5148 ft 95 kts 33°
2026-05-09 08:46 1.41823 103.87038 5153 ft 86 kts 352°
2026-05-09 08:46 1.42358 103.86822 5067 ft 92 kts 310°
2026-05-09 08:46 1.42667 103.86301 5106 ft 84 kts 298°
2026-05-09 08:47 1.42702 103.85679 4999 ft 94 kts 246°
2026-05-09 08:47 1.42205 103.85278 4945 ft 94 kts 208°
2026-05-09 08:47 1.41629 103.84980 4878 ft 93 kts 214°
2026-05-09 08:47 1.41047 103.84643 4746 ft 98 kts 210°
2026-05-09 08:48 1.40404 103.84619 4629 ft 98 kts 150°
2026-05-09 08:48 1.39997 103.85139 4522 ft 92 kts 120°
2026-05-09 08:48 1.40033 103.85760 4375 ft 93 kts 59°
2026-05-09 08:48 1.40389 103.86284 4298 ft 90 kts 51°
2026-05-09 08:49 1.40821 103.86728 4246 ft 86 kts 30°
2026-05-09 08:49 1.41375 103.86875 4174 ft 87 kts 358°
2026-05-09 08:49 1.41930 103.86678 4141 ft 84 kts 320°
2026-05-09 08:49 1.42255 103.86213 4140 ft 83 kts 287°
2026-05-09 08:50 1.42252 103.85627 4074 ft 85 kts 250°
2026-05-09 08:50 1.41939 103.85140 4003 ft 88 kts 224°
2026-05-09 08:50 1.41393 103.84886 3920 ft 87 kts 190°
2026-05-09 08:50 1.40793 103.84987 3800 ft 92 kts 150°
2026-05-09 08:51 1.40326 103.85394 3734 ft 89 kts 133°
2026-05-09 08:51 1.40024 103.85916 3638 ft 89 kts 91°
2026-05-09 08:51 1.40405 103.86348 3540 ft 88 kts 29°
2026-05-09 08:51 1.40970 103.86446 3486 ft 84 kts 335°
2026-05-09 08:52 1.41367 103.86053 3473 ft 79 kts 303°
2026-05-09 08:52 1.41630 103.85559 3382 ft 85 kts 273°
2026-05-09 08:52 1.41356 103.85072 3287 ft 87 kts 216°
2026-05-09 08:52 1.40873 103.84710 3212 ft 86 kts 216°
2026-05-09 08:53 1.40295 103.84683 3065 ft 90 kts 150°
2026-05-09 08:53 1.40001 103.85184 2961 ft 88 kts 91°
2026-05-09 08:53 1.40136 103.85785 2873 ft 89 kts 61°
2026-05-09 08:53 1.40495 103.86278 2833 ft 87 kts 39°
2026-05-09 08:54 1.40984 103.86610 2812 ft 88 kts 35°
2026-05-09 08:54 1.41505 103.86944 2818 ft 86 kts 27°
2026-05-09 08:54 1.42047 103.87157 2888 ft 79 kts 13°
2026-05-09 08:54 1.42550 103.87113 3004 ft 63 kts 342°
2026-05-09 08:55 1.42865 103.86891 2987 ft 64 kts 264°
2026-05-09 08:55 1.42739 103.86503 3017 ft 59 kts 249°
2026-05-09 08:55 1.42654 103.86104 2989 ft 60 kts 268°
2026-05-09 08:55 1.42360 103.86156 2885 ft 63 kts 90°
2026-05-09 08:56 1.42564 103.86193 2539 ft 79 kts 257°
2026-05-09 08:56 1.42220 103.85775 2325 ft 98 kts 230°
2026-05-09 08:56 1.41870 103.85804 2449 ft 71 kts 41°
2026-05-09 08:56 1.42194 103.85694 2477 ft 60 kts 281°
2026-05-09 08:57 1.42046 103.85323 2457 ft 61 kts 219°
2026-05-09 08:57 1.41766 103.85044 2455 ft 58 kts 213°
2026-05-09 08:57 1.41382 103.85019 2304 ft 33 kts 105°
2026-05-09 08:57 1.41211 103.85321 1870 ft 88 kts 50°
2026-05-09 08:58 1.41762 103.85597 1777 ft 96 kts
2026-05-09 08:58 1.41937 103.85198 1716 ft 86 kts 238°
2026-05-09 08:58 1.41489 103.84847 1765 ft 84 kts 231°
2026-05-09 08:58 1.41049 103.84550 1826 ft 76 kts 221°
2026-05-09 08:59 1.40598 103.84348 1800 ft 74 kts 173°
2026-05-09 08:59 1.40198 103.84696 1663 ft 81 kts 144°
2026-05-09 08:59 1.39768 103.85114 1444 ft 88 kts 154°
2026-05-09 08:59 1.39923 103.85642 1000 ft 96 kts 42°
2026-05-09 09:00 1.40457 103.85957 822 ft 95 kts 61°
2026-05-09 09:00 1.40951 103.86014 762 ft 78 kts 282°
2026-05-09 09:00 1.40616 103.85612 797 ft 74 kts 208°
2026-05-09 09:00 1.40191 103.85326 891 ft 74 kts 214°
2026-05-09 09:01 1.39827 103.85539 682 ft 97 kts 69°
2026-05-09 09:01 1.40370 103.85849 572 ft 84 kts 21°
2026-05-09 09:01 1.40878 103.86222 85 ft 91 kts 39°
2026-05-09 09:01 1.41302 103.86511 49 ft 57 kts 30°
2026-05-09 09:02 1.41572 103.86684 49 ft 38 kts 36°
2026-05-09 09:02 1.41756 103.86805 48 ft 25 kts 34°
2026-05-09 09:02 1.41854 103.86869 48 ft 0 kts 34°
2026-05-09 09:03 1.41861 103.86873 48 ft 0 kts 34°
2026-05-09 09:04 1.41866 103.86877 48 ft 8 kts 34°
2026-05-09 09:04 1.42060 103.87004 49 ft 45 kts 35°
2026-05-09 09:05 1.42250 103.87095 49 ft 24 kts 314°
2026-05-09 09:05 1.42270 103.86958 49 ft 18 kts 214°
2026-05-09 09:05 1.42189 103.86898 49 ft 18 kts 213°
2026-05-09 09:05 1.41944 103.86739 58 ft 60 kts 205°
2026-05-09 09:06 1.41653 103.86548 49 ft 42 kts 214°
2026-05-09 09:06 1.41467 103.86386 49 ft 10 kts 244°
2026-05-09 09:06 1.41435 103.86357 49 ft 4 kts 153°
2026-05-09 09:06 1.41431 103.86360 49 ft 0 kts 151°
2026-05-09 09:08 1.39894 103.85302 805 ft 0 kts 146°